Tekoa, WA

9:35 AM PDT on September 20, 2014 (GMT -0700)
KWAGARFI3 | Change Station
CLOSE
Current Station
Personal Weather Station
Location: Garfield, WA
Elevation: 2520 ft
Nearby Weather Stations

Elev 2520 ft 47.01 °N, 117.15 °W | Updated 44 seconds ago

Clear
Clear
63.8 °F
Feels Like 63.8 °F
N
0.0
Wind Variable Wind from SSW
Gusts 0.0 mph

Today
High -- | Low -- °F
--% Chance of Precip.
Yesterday
High -- | Low -- °F
Precip. -- in
6:32 AM 6:49 PM
Waning Crescent, 11% visible
Pressure 30.18 in
Visibility 10.0 miles
Clouds Clear
Dew Point 46 °F
Humidity 52%
Rainfall 0.00 in
Snow Depth 0 in , 0 in , 0 in
UV 2 out of 12
Pollen 7.80 out of 12
Air Quality Not available.
Flu Activity Not available.
METAR KPUW 201553Z AUTO 11009KT 10SM CLR 18/08 A3020 RMK AO2 SLP218 T01830083

More Conditions Fewer Conditions

Pressure 30.18 in
Visibility 10.0 miles
Clouds Clear
Dew Point 46 °F
Humidity 52%
Rainfall 0.00 in
Snow Depth 0 in , 0 in , 0 in
UV 2 out of 12
Pollen 7.80 out of 12
Air Quality Not available.
Flu Activity Not available.
METAR KPUW 201553Z AUTO 11009KT 10SM CLR 18/08 A3020 RMK AO2 SLP218 T01830083

More Conditions Fewer Conditions

10-Day Weather Forecast

Almanac

Astronomy

Sep. 20, 2014 Rise Set
Actual Time 6:32 AM PDT 6:49 PM PDT
Civil Twilight 6:01 AM PDT 7:20 PM PDT
Nautical Twilight 5:25 AM PDT 7:56 PM PDT
Astronomical Twilight 4:48 AM PDT 8:33 PM PDT
Moon 3:05 AM PDT 5:04 PM PDT
Length of Visible Light 13h 18m
Length of Day
12h 17m
Tomorrow will be 3m 22s shorter.
Waning Crescent, 11% of the Moon is Illuminated
Today
Waning Crescent
Sep 24
New
Oct 1
First Quarter
Oct 8
Full
Oct 15
Last Quarter

Today's Extremes

State Highs State Lows

Community

WunderPhotos

Upload Photos

1,754,892 photos uploaded!

Nearby

Snow Depth

Station Depth Elevation
Lyman Lake 0 in 5900 ft
Park Creek Ridge 0 in 4600 ft
Moses Mountain 1 in 5300 ft
Alpine Meadows 0 in 3500 ft
Lost Horse 0 in 5000 ft

Earthquake Activity

City Distance Mag. Time & Date
No recent earthquake activity has been reported nearby.
Minimum magnitude displayed is 2.5.

Coastal Water Temperatures

Place Temperature
No Stations Reporting

Nearby Weather Stations